Terminal Aerodrome Forecast
Issued by NWS

Home | Current Version | Previous Version | Text Only | Print | Product List | Glossary On
Versions: 1 2 3 4 5 6 7 8 9 10 11 12 13
000
FTUS42 KILM 311133
TAFCRE
TAF
KCRE 311133Z 3112/0112 33005KT P6SM VCSH SCT020 SCT060 BKN100
     FM311800 17008KT 6SM -SHRA VCTS BKN040CB
      TEMPO 3119/3123 3SM TSRA SCT010 BKN020CB
     FM312300 21008KT P6SM -SHRA FEW020 SCT050 BKN100
     FM010400 26003KT 6SM BR SCT040 BKN150
     FM011000 VRB03KT 4SM BR SCT008 SCT040 BKN150=

USA.gov is the U.S. government's official web portal to all federal, state and local government web resources and services.